Time;durP1;ratioP1;P1;durP2;ratioP2;P2;SDS_P1;SDS_P2;PMS_P1;PMS_P2;Temp;Humidity;BMP_temperature;BMP_pressure;BME280_temperature;BME280_humidity;BME280_pressure;Samples;Min_cycle;Max_cycle;Signal;HPM_P1;HPM_P2
2022/11/08 00:03:32;;;;;;;;;;;20.10;47.10;;;;;;4971114;28;20016;-64
2022/11/08 00:14:12;;;;;;;;;;;20.10;47.00;;;;;;4972940;28;20380;-65
2022/11/08 00:16:40;;;;;;;;;;;20.10;47.00;;;;;;4987239;28;20011;-64
2022/11/08 00:19:07;;;;;;;;;;;20.10;47.10;;;;;;4996781;28;19929;-65
2022/11/08 00:21:33;;;;;;;;;;;20.10;47.00;;;;;;4982043;28;19926;-64
2022/11/08 00:24:00;;;;;;;;;;;20.10;47.10;;;;;;4977785;28;19937;-65
2022/11/08 00:26:27;;;;;;;;;;;20.10;47.10;;;;;;4995242;28;19926;-65
2022/11/08 00:28:53;;;;;;;;;;;20.10;47.00;;;;;;4977181;28;19926;-65
2022/11/08 00:31:20;;;;;;;;;;;20.10;47.00;;;;;;4994327;28;19937;-65
2022/11/08 00:33:48;;;;;;;;;;;20.10;47.10;;;;;;4992272;28;19957;-64
2022/11/08 00:36:15;;;;;;;;;;;20.10;47.10;;;;;;4998356;28;19973;-64
2022/11/08 00:38:42;;;;;;;;;;;20.10;47.00;;;;;;4975041;28;20009;-65
2022/11/08 00:41:09;;;;;;;;;;;20.10;47.00;;;;;;4967603;28;19926;-65
2022/11/08 00:43:36;;;;;;;;;;;20.10;47.10;;;;;;4992915;28;19964;-65
2022/11/08 00:46:02;;;;;;;;;;;20.10;47.00;;;;;;4994522;28;20008;-65
2022/11/08 00:48:29;;;;;;;;;;;20.10;47.10;;;;;;4985165;28;19926;-65
2022/11/08 00:51:00;;;;;;;;;;;20.10;47.10;;;;;;4984341;28;19972;-64
2022/11/08 00:53:26;;;;;;;;;;;20.10;47.00;;;;;;4986029;28;19964;-64
2022/11/08 00:55:58;;;;;;;;;;;20.10;47.00;;;;;;4974554;28;20020;-64
2022/11/08 00:58:24;;;;;;;;;;;20.10;47.10;;;;;;4986750;28;19922;-64
2022/11/08 01:00:51;;;;;;;;;;;20.10;47.00;;;;;;4981590;28;19925;-64
2022/11/08 01:03:21;;;;;;;;;;;20.10;47.10;;;;;;4988902;28;19932;-65
2022/11/08 01:05:47;;;;;;;;;;;20.10;47.00;;;;;;4974697;28;19929;-65
2022/11/08 01:08:15;;;;;;;;;;;20.10;47.00;;;;;;4992819;28;19973;-65
2022/11/08 01:10:42;;;;;;;;;;;20.10;47.00;;;;;;4996947;28;19987;-65
2022/11/08 01:13:09;;;;;;;;;;;20.10;47.00;;;;;;4976681;28;19930;-64
2022/11/08 01:15:35;;;;;;;;;;;20.10;47.10;;;;;;4992489;28;20013;-64
2022/11/08 01:18:02;;;;;;;;;;;20.10;47.10;;;;;;4965693;28;19926;-65
2022/11/08 01:20:29;;;;;;;;;;;20.10;47.10;;;;;;4963005;28;19972;-65
2022/11/08 01:22:55;;;;;;;;;;;20.10;47.10;;;;;;4978099;28;19929;-64
2022/11/08 01:25:23;;;;;;;;;;;20.10;47.10;;;;;;4994326;28;19964;-65
2022/11/08 01:27:50;;;;;;;;;;;20.10;47.00;;;;;;5012360;28;19926;-65
2022/11/08 01:30:17;;;;;;;;;;;20.10;47.00;;;;;;4979326;28;19926;-65
2022/11/08 01:32:44;;;;;;;;;;;20.10;47.00;;;;;;4976123;28;19957;-65
2022/11/08 01:35:10;;;;;;;;;;;20.10;47.10;;;;;;4986028;28;19930;-64
2022/11/08 01:37:37;;;;;;;;;;;20.10;47.00;;;;;;4975883;28;19936;-65
2022/11/08 01:40:04;;;;;;;;;;;20.10;47.00;;;;;;4980471;28;19926;-65
2022/11/08 01:42:33;;;;;;;;;;;20.10;47.10;;;;;;4988266;28;19930;-64
2022/11/08 01:44:59;;;;;;;;;;;20.10;47.00;;;;;;4991908;28;19980;-64
2022/11/08 01:47:27;;;;;;;;;;;20.10;47.00;;;;;;4990237;28;19930;-64
2022/11/08 01:49:54;;;;;;;;;;;20.10;47.00;;;;;;4975210;28;20438;-64
2022/11/08 01:52:28;;;;;;;;;;;20.10;47.00;;;;;;4988086;28;19949;-65
2022/11/08 01:54:56;;;;;;;;;;;20.10;47.00;;;;;;4973443;28;19935;-65
2022/11/08 01:57:24;;;;;;;;;;;20.10;47.00;;;;;;4984871;28;19955;-65
2022/11/08 01:59:52;;;;;;;;;;;20.10;47.00;;;;;;4992927;28;19926;-65
2022/11/08 02:02:19;;;;;;;;;;;20.10;47.00;;;;;;5008650;28;19965;-64
2022/11/08 02:04:46;;;;;;;;;;;20.10;47.00;;;;;;4983558;28;20288;-63
2022/11/08 02:07:13;;;;;;;;;;;20.10;47.00;;;;;;4976552;28;19936;-64
2022/11/08 02:09:40;;;;;;;;;;;20.10;47.00;;;;;;4972242;28;19930;-64
2022/11/08 02:12:06;;;;;;;;;;;20.10;47.00;;;;;;4994188;28;19925;-64
2022/11/08 02:14:33;;;;;;;;;;;20.10;47.00;;;;;;4992334;28;19980;-64
2022/11/08 02:17:01;;;;;;;;;;;20.10;47.00;;;;;;4993759;28;19965;-64
2022/11/08 02:19:29;;;;;;;;;;;20.10;47.00;;;;;;4993183;28;19930;-64
2022/11/08 02:21:57;;;;;;;;;;;20.10;47.00;;;;;;4992934;28;19930;-65
2022/11/08 02:24:25;;;;;;;;;;;20.10;47.00;;;;;;4967780;28;19926;-65
2022/11/08 02:26:52;;;;;;;;;;;20.10;47.00;;;;;;4976764;28;19929;-65
2022/11/08 02:29:22;;;;;;;;;;;20.10;47.00;;;;;;5001332;28;19949;-64
2022/11/08 02:31:48;;;;;;;;;;;20.10;47.00;;;;;;4998291;28;20027;-65
2022/11/08 02:34:15;;;;;;;;;;;20.10;47.00;;;;;;4956569;28;19969;-64
2022/11/08 02:36:42;;;;;;;;;;;20.10;47.00;;;;;;4968382;28;19932;-64
2022/11/08 02:39:09;;;;;;;;;;;20.10;47.00;;;;;;4982537;28;19947;-65
2022/11/08 02:41:37;;;;;;;;;;;20.10;47.00;;;;;;4991167;28;19969;-65
2022/11/08 02:44:05;;;;;;;;;;;20.10;47.00;;;;;;4958506;28;19934;-64
2022/11/08 02:46:31;;;;;;;;;;;20.10;47.00;;;;;;4969472;28;20000;-65
2022/11/08 02:48:58;;;;;;;;;;;20.10;47.00;;;;;;4990526;28;19932;-65
2022/11/08 02:51:25;;;;;;;;;;;20.10;47.00;;;;;;4986953;28;20348;-65
2022/11/08 02:53:51;;;;;;;;;;;20.10;47.00;;;;;;4992197;28;20639;-64
2022/11/08 02:56:18;;;;;;;;;;;20.10;47.00;;;;;;4992352;28;19989;-65
2022/11/08 02:58:46;;;;;;;;;;;20.10;47.00;;;;;;4992403;28;19961;-64
2022/11/08 03:01:13;;;;;;;;;;;20.10;47.00;;;;;;4977841;28;19929;-64
2022/11/08 03:03:40;;;;;;;;;;;20.10;47.00;;;;;;5007051;28;19981;-65
2022/11/08 03:06:06;;;;;;;;;;;20.10;47.00;;;;;;4963418;28;19965;-65
2022/11/08 03:08:33;;;;;;;;;;;20.10;47.00;;;;;;4994522;28;19929;-65
2022/11/08 03:11:02;;;;;;;;;;;20.10;47.00;;;;;;5002187;28;22531;-64
2022/11/08 03:13:29;;;;;;;;;;;20.10;47.00;;;;;;4974893;28;19926;-65
2022/11/08 03:15:57;;;;;;;;;;;20.10;47.00;;;;;;4974129;28;19929;-65
2022/11/08 03:18:24;;;;;;;;;;;20.10;47.00;;;;;;4994542;28;19932;-65
2022/11/08 03:20:50;;;;;;;;;;;20.10;47.00;;;;;;4978306;28;20285;-65
2022/11/08 03:23:17;;;;;;;;;;;20.10;47.00;;;;;;4972429;28;20014;-66
2022/11/08 03:25:44;;;;;;;;;;;20.10;47.00;;;;;;4976973;28;19930;-65
2022/11/08 03:28:10;;;;;;;;;;;20.10;47.00;;;;;;5008554;28;20438;-65
2022/11/08 03:30:37;;;;;;;;;;;20.10;47.10;;;;;;4982689;28;19930;-65
2022/11/08 03:33:05;;;;;;;;;;;20.10;47.00;;;;;;4977585;28;19980;-65
2022/11/08 03:35:32;;;;;;;;;;;20.10;47.00;;;;;;4980195;28;20001;-64
2022/11/08 03:37:58;;;;;;;;;;;20.10;47.00;;;;;;5003555;28;19932;-64
2022/11/08 03:40:25;;;;;;;;;;;20.10;47.00;;;;;;4985192;28;20046;-64
2022/11/08 03:42:52;;;;;;;;;;;20.10;47.10;;;;;;5006203;28;19929;-65
2022/11/08 03:45:18;;;;;;;;;;;20.10;47.10;;;;;;4980403;28;19925;-65
2022/11/08 03:47:46;;;;;;;;;;;20.10;47.00;;;;;;4990455;28;20002;-65
2022/11/08 03:50:14;;;;;;;;;;;20.10;47.10;;;;;;4990163;28;19977;-65
2022/11/08 03:52:41;;;;;;;;;;;20.10;47.10;;;;;;5007383;28;19926;-65
2022/11/08 03:55:08;;;;;;;;;;;20.10;47.10;;;;;;4984976;28;19926;-65
2022/11/08 03:57:35;;;;;;;;;;;20.10;47.00;;;;;;4983914;28;19953;-64
2022/11/08 04:00:01;;;;;;;;;;;20.10;47.10;;;;;;4995603;28;19930;-64
2022/11/08 04:02:28;;;;;;;;;;;20.10;47.10;;;;;;4988019;28;20419;-64
2022/11/08 04:04:55;;;;;;;;;;;20.10;47.00;;;;;;4997172;28;20001;-65
2022/11/08 04:07:23;;;;;;;;;;;20.10;47.10;;;;;;5006235;28;19965;-65
2022/11/08 04:09:50;;;;;;;;;;;20.10;47.10;;;;;;4977346;28;19926;-65
2022/11/08 04:15:16;;;;;;;;;;;20.10;47.10;;;;;;5011165;28;19955;-65
2022/11/08 04:23:09;;;;;;;;;;;20.10;47.00;;;;;;4984540;28;20032;-65
2022/11/08 04:25:35;;;;;;;;;;;20.10;47.00;;;;;;4997821;28;20528;-65
2022/11/08 04:28:04;;;;;;;;;;;20.10;47.10;;;;;;5008257;28;19973;-64
2022/11/08 04:30:31;;;;;;;;;;;20.10;47.10;;;;;;4985023;28;19930;-65
2022/11/08 04:32:59;;;;;;;;;;;20.10;47.10;;;;;;4958946;28;19982;-64
2022/11/08 04:35:25;;;;;;;;;;;20.10;47.10;;;;;;4967127;28;19932;-64
2022/11/08 04:37:52;;;;;;;;;;;20.10;47.10;;;;;;4989448;28;19969;-64
2022/11/08 04:40:20;;;;;;;;;;;20.10;47.10;;;;;;4994269;28;20291;-64
2022/11/08 04:42:47;;;;;;;;;;;20.10;47.10;;;;;;4993775;28;19926;-65
2022/11/08 04:45:14;;;;;;;;;;;20.10;47.10;;;;;;4984435;28;19930;-64
2022/11/08 04:47:40;;;;;;;;;;;20.10;47.10;;;;;;4984906;28;19988;-64
2022/11/08 04:50:07;;;;;;;;;;;20.10;47.20;;;;;;4989678;28;19932;-64
2022/11/08 04:52:36;;;;;;;;;;;20.10;47.20;;;;;;4997512;28;20011;-65
2022/11/08 04:55:04;;;;;;;;;;;20.10;47.20;;;;;;4979164;28;19930;-65
2022/11/08 04:57:32;;;;;;;;;;;20.10;47.20;;;;;;4996811;28;19926;-65
2022/11/08 05:00:10;;;;;;;;;;;20.00;47.10;;;;;;4986835;28;19973;-64
2022/11/08 05:02:37;;;;;;;;;;;20.00;47.10;;;;;;4991111;28;20028;-65
2022/11/08 05:05:04;;;;;;;;;;;20.00;47.10;;;;;;4993079;28;19926;-65
2022/11/08 05:07:31;;;;;;;;;;;20.00;47.10;;;;;;4990938;28;19930;-64
2022/11/08 05:09:57;;;;;;;;;;;20.00;47.10;;;;;;4975239;28;19953;-65
2022/11/08 05:12:24;;;;;;;;;;;20.00;47.10;;;;;;4990120;28;19973;-64
2022/11/08 05:14:55;;;;;;;;;;;20.00;47.10;;;;;;4975937;28;19926;-64
2022/11/08 05:17:22;;;;;;;;;;;20.00;47.10;;;;;;4998475;28;19948;-64
2022/11/08 05:25:26;;;;;;;;;;;20.00;47.10;;;;;;4985340;28;19930;-65
2022/11/08 05:27:52;;;;;;;;;;;20.00;47.10;;;;;;4978716;28;19930;-64
2022/11/08 05:30:21;;;;;;;;;;;20.00;47.10;;;;;;4976493;28;20344;-64
2022/11/08 05:32:50;;;;;;;;;;;20.00;47.10;;;;;;4977044;28;20380;-63
2022/11/08 05:35:17;;;;;;;;;;;20.00;47.10;;;;;;4992658;28;20384;-64
2022/11/08 05:37:44;;;;;;;;;;;20.00;47.10;;;;;;5000189;28;19936;-66
2022/11/08 05:40:11;;;;;;;;;;;20.00;47.10;;;;;;4992638;28;19968;-64
2022/11/08 05:42:38;;;;;;;;;;;20.00;47.10;;;;;;4998675;28;20028;-64
2022/11/08 05:45:05;;;;;;;;;;;20.00;47.20;;;;;;4983255;28;19961;-65
2022/11/08 05:47:33;;;;;;;;;;;20.00;47.20;;;;;;4976395;28;20016;-65
2022/11/08 05:49:59;;;;;;;;;;;20.00;47.20;;;;;;4971515;28;19930;-65
2022/11/08 05:52:26;;;;;;;;;;;20.00;47.10;;;;;;4992753;28;19973;-65
2022/11/08 05:54:53;;;;;;;;;;;20.00;47.10;;;;;;4991619;28;19937;-64
2022/11/08 05:57:20;;;;;;;;;;;20.00;47.70;;;;;;4991035;28;20032;-65
2022/11/08 05:59:46;;;;;;;;;;;20.00;47.20;;;;;;4970566;28;19926;-65
2022/11/08 06:02:13;;;;;;;;;;;20.00;47.10;;;;;;4990110;28;19926;-64
2022/11/08 06:04:41;;;;;;;;;;;20.00;47.20;;;;;;4992073;28;20024;-66
2022/11/08 06:07:08;;;;;;;;;;;20.00;47.10;;;;;;4992089;28;19933;-66
2022/11/08 06:09:34;;;;;;;;;;;20.00;47.10;;;;;;5004870;28;19982;-65
2022/11/08 06:12:04;;;;;;;;;;;20.00;47.20;;;;;;4956631;28;19972;-64
2022/11/08 06:14:31;;;;;;;;;;;20.00;47.20;;;;;;4982290;28;19925;-64
2022/11/08 06:16:57;;;;;;;;;;;20.00;47.20;;;;;;4995287;28;19949;-65
2022/11/08 06:19:24;;;;;;;;;;;20.00;47.20;;;;;;5009685;28;19961;-64
2022/11/08 06:21:52;;;;;;;;;;;20.00;47.20;;;;;;4992057;28;20028;-64
2022/11/08 06:24:19;;;;;;;;;;;20.00;47.30;;;;;;4988560;28;19926;-64
2022/11/08 06:26:45;;;;;;;;;;;20.00;47.30;;;;;;4956769;28;19936;-64
2022/11/08 06:29:12;;;;;;;;;;;20.00;47.40;;;;;;4971168;28;19933;-65
2022/11/08 06:31:39;;;;;;;;;;;20.00;47.30;;;;;;4967491;28;19926;-64
2022/11/08 06:34:05;;;;;;;;;;;20.00;47.30;;;;;;4994084;28;19925;-64
2022/11/08 06:36:32;;;;;;;;;;;20.00;47.30;;;;;;4982016;28;19981;-65
2022/11/08 06:39:00;;;;;;;;;;;20.00;47.20;;;;;;4983751;28;20366;-67
2022/11/08 06:41:28;;;;;;;;;;;20.00;47.20;;;;;;4985378;28;19962;-64
2022/11/08 06:43:55;;;;;;;;;;;19.90;47.10;;;;;;4970086;28;20412;-63
2022/11/08 06:46:22;;;;;;;;;;;19.90;47.10;;;;;;4972386;28;19930;-64
2022/11/08 06:48:48;;;;;;;;;;;20.00;47.20;;;;;;4987825;28;19972;-63
2022/11/08 06:51:15;;;;;;;;;;;19.90;47.20;;;;;;4992244;28;20029;-63
2022/11/08 06:53:42;;;;;;;;;;;19.90;47.20;;;;;;4987542;28;19926;-63
2022/11/08 06:56:10;;;;;;;;;;;19.90;47.20;;;;;;4987639;28;20024;-63
2022/11/08 06:58:36;;;;;;;;;;;19.90;47.20;;;;;;5000093;28;19925;-63
2022/11/08 07:01:03;;;;;;;;;;;19.90;47.10;;;;;;4976453;28;20004;-63
2022/11/08 07:03:30;;;;;;;;;;;19.90;47.10;;;;;;4962816;28;20009;-63
2022/11/08 07:05:56;;;;;;;;;;;19.90;47.10;;;;;;4955641;28;19926;-63
2022/11/08 07:08:23;;;;;;;;;;;19.90;47.00;;;;;;4969793;28;19973;-63
2022/11/08 07:10:50;;;;;;;;;;;19.90;47.00;;;;;;4994895;28;20442;-63
2022/11/08 07:13:18;;;;;;;;;;;19.90;47.00;;;;;;4988378;28;20335;-63
2022/11/08 07:15:46;;;;;;;;;;;19.90;47.00;;;;;;4995115;28;20016;-64
2022/11/08 07:18:13;;;;;;;;;;;19.90;47.00;;;;;;4987468;28;19930;-63
2022/11/08 07:20:40;;;;;;;;;;;19.90;47.00;;;;;;4955903;28;20033;-62
2022/11/08 07:23:06;;;;;;;;;;;19.90;47.00;;;;;;4955724;28;19927;-63
2022/11/08 07:25:33;;;;;;;;;;;19.90;47.00;;;;;;4973009;28;19929;-63
2022/11/08 07:28:00;;;;;;;;;;;19.90;47.00;;;;;;4979551;28;20442;-63
2022/11/08 07:30:29;;;;;;;;;;;19.90;47.00;;;;;;4990092;28;20028;-63
2022/11/08 07:32:55;;;;;;;;;;;19.90;47.00;;;;;;4975398;28;19953;-63
2022/11/08 07:35:22;;;;;;;;;;;19.90;47.00;;;;;;4992586;28;19930;-63
2022/11/08 07:37:49;;;;;;;;;;;19.90;47.00;;;;;;4975991;28;20395;-63
2022/11/08 07:40:16;;;;;;;;;;;19.90;47.00;;;;;;4991789;28;19980;-63
2022/11/08 07:42:42;;;;;;;;;;;19.90;47.00;;;;;;4974810;28;20437;-63
2022/11/08 07:45:10;;;;;;;;;;;19.90;47.00;;;;;;4974357;28;19949;-65
2022/11/08 07:47:38;;;;;;;;;;;19.90;47.00;;;;;;4990515;28;20418;-64
2022/11/08 07:50:05;;;;;;;;;;;19.90;46.90;;;;;;4993021;28;19941;-63
2022/11/08 07:52:31;;;;;;;;;;;19.90;46.90;;;;;;5012339;28;19976;-63
2022/11/08 07:54:58;;;;;;;;;;;19.90;47.00;;;;;;4994541;28;19925;-63
2022/11/08 07:57:25;;;;;;;;;;;19.90;46.90;;;;;;4989248;28;20399;-63
2022/11/08 07:59:51;;;;;;;;;;;19.90;46.90;;;;;;4956027;28;19971;-62
2022/11/08 08:02:18;;;;;;;;;;;19.90;46.90;;;;;;4956122;28;19950;-63
2022/11/08 08:04:46;;;;;;;;;;;19.90;46.90;;;;;;4971831;28;19977;-64
2022/11/08 08:07:13;;;;;;;;;;;19.90;46.90;;;;;;4962245;28;19974;-64
2022/11/08 08:09:40;;;;;;;;;;;19.90;46.90;;;;;;4968866;28;19934;-63
2022/11/08 08:12:07;;;;;;;;;;;19.90;46.90;;;;;;4961913;28;19932;-63
2022/11/08 08:14:33;;;;;;;;;;;19.90;46.90;;;;;;4968921;28;20415;-63
2022/11/08 08:17:00;;;;;;;;;;;19.90;46.90;;;;;;4954736;28;20403;-63
2022/11/08 08:19:27;;;;;;;;;;;19.90;46.80;;;;;;4966769;28;19992;-64
2022/11/08 08:21:55;;;;;;;;;;;19.90;46.90;;;;;;4973822;28;19926;-63
2022/11/08 08:24:21;;;;;;;;;;;19.90;46.90;;;;;;4973559;28;19973;-64
2022/11/08 08:26:48;;;;;;;;;;;19.90;46.90;;;;;;4990971;28;20075;-64
2022/11/08 08:29:15;;;;;;;;;;;19.90;46.90;;;;;;4973353;28;19936;-64
2022/11/08 08:31:41;;;;;;;;;;;19.90;47.40;;;;;;4957363;28;19969;-64
2022/11/08 08:34:08;;;;;;;;;;;19.90;46.80;;;;;;4972020;28;19936;-63
2022/11/08 08:36:35;;;;;;;;;;;19.90;46.80;;;;;;4973897;28;19976;-63
2022/11/08 08:39:03;;;;;;;;;;;19.90;46.80;;;;;;4976518;28;19954;-63
2022/11/08 08:41:30;;;;;;;;;;;19.90;46.80;;;;;;4991538;28;20415;-63
2022/11/08 08:43:57;;;;;;;;;;;19.90;46.80;;;;;;4988742;28;19926;-63
2022/11/08 08:46:23;;;;;;;;;;;19.90;46.80;;;;;;5012486;28;20011;-64
2022/11/08 08:48:50;;;;;;;;;;;19.90;46.80;;;;;;4975948;28;19961;-64
2022/11/08 08:51:17;;;;;;;;;;;19.90;46.80;;;;;;4992794;28;19977;-64
2022/11/08 08:53:43;;;;;;;;;;;19.90;46.80;;;;;;4998256;28;20011;-64
2022/11/08 08:56:11;;;;;;;;;;;19.90;46.80;;;;;;4982673;28;20060;-63
2022/11/08 08:58:38;;;;;;;;;;;19.90;46.80;;;;;;4977631;28;19952;-63
2022/11/08 09:01:07;;;;;;;;;;;19.90;46.80;;;;;;4977896;28;19969;-64
2022/11/08 09:03:34;;;;;;;;;;;19.90;46.80;;;;;;4979837;28;19984;-64
2022/11/08 09:06:01;;;;;;;;;;;19.90;46.80;;;;;;4997489;28;20001;-64
2022/11/08 09:08:27;;;;;;;;;;;19.90;46.80;;;;;;4997254;28;19925;-64
2022/11/08 09:10:54;;;;;;;;;;;19.90;46.80;;;;;;5011682;28;20411;-64
2022/11/08 09:13:22;;;;;;;;;;;19.90;46.80;;;;;;4977155;28;19948;-64
2022/11/08 09:15:49;;;;;;;;;;;19.90;46.80;;;;;;4993702;28;19980;-63
2022/11/08 09:18:16;;;;;;;;;;;19.90;46.80;;;;;;4994533;28;20033;-63
2022/11/08 09:20:43;;;;;;;;;;;19.90;47.40;;;;;;4993509;28;19926;-63
2022/11/08 09:23:10;;;;;;;;;;;19.90;46.80;;;;;;4977708;28;19926;-63
2022/11/08 09:25:37;;;;;;;;;;;19.90;46.80;;;;;;4977613;28;20032;-63
2022/11/08 09:28:03;;;;;;;;;;;20.00;46.90;;;;;;4995406;28;19965;-64
2022/11/08 09:30:31;;;;;;;;;;;20.00;46.90;;;;;;4994651;28;20017;-62
2022/11/08 09:32:58;;;;;;;;;;;20.00;46.90;;;;;;5014602;28;20459;-63
2022/11/08 09:35:25;;;;;;;;;;;20.00;46.90;;;;;;4987141;28;20020;-63
2022/11/08 09:37:52;;;;;;;;;;;20.00;46.90;;;;;;4977697;28;20024;-63
2022/11/08 09:40:21;;;;;;;;;;;20.00;46.90;;;;;;4994897;28;19984;-64
2022/11/08 09:42:50;;;;;;;;;;;20.00;46.90;;;;;;4994626;28;19926;-63
2022/11/08 09:45:27;;;;;;;;;;;20.00;46.90;;;;;;4991387;28;19932;-64
2022/11/08 09:47:57;;;;;;;;;;;20.00;46.90;;;;;;4996588;28;19926;-63
2022/11/08 09:50:25;;;;;;;;;;;20.00;46.90;;;;;;4996020;28;20469;-63
2022/11/08 09:52:54;;;;;;;;;;;20.00;46.90;;;;;;4992447;28;19956;-63
2022/11/08 09:55:23;;;;;;;;;;;20.00;46.90;;;;;;4991000;28;19964;-65
2022/11/08 09:57:51;;;;;;;;;;;20.00;46.90;;;;;;5005838;28;20017;-64
2022/11/08 10:00:18;;;;;;;;;;;20.00;46.90;;;;;;5010464;28;20387;-64
2022/11/08 10:02:45;;;;;;;;;;;20.00;46.90;;;;;;4976820;28;19980;-62
2022/11/08 10:05:14;;;;;;;;;;;20.00;46.90;;;;;;4993530;28;20024;-63
2022/11/08 10:07:42;;;;;;;;;;;20.00;47.20;;;;;;4971863;28;19932;-63
2022/11/08 10:10:16;;;;;;;;;;;20.00;46.90;;;;;;4968196;28;20033;-64
2022/11/08 10:12:44;;;;;;;;;;;20.00;46.90;;;;;;4980207;28;19972;-64
2022/11/08 10:15:13;;;;;;;;;;;20.00;46.90;;;;;;4957180;28;19937;-63
2022/11/08 10:17:48;;;;;;;;;;;20.00;46.90;;;;;;4973733;28;19957;-64
2022/11/08 10:20:20;;;;;;;;;;;20.00;46.90;;;;;;4992185;28;19933;-64
2022/11/08 10:22:49;;;;;;;;;;;20.00;46.90;;;;;;4974588;28;20016;-64
2022/11/08 10:25:18;;;;;;;;;;;20.00;46.90;;;;;;4992192;28;19926;-64
2022/11/08 10:27:45;;;;;;;;;;;20.00;46.90;;;;;;4992732;28;19933;-63
2022/11/08 10:30:17;;;;;;;;;;;20.00;46.90;;;;;;4987827;28;19925;-64
2022/11/08 10:32:43;;;;;;;;;;;20.00;46.90;;;;;;4979287;28;19989;-63
2022/11/08 10:35:15;;;;;;;;;;;20.00;46.90;;;;;;4978911;28;19995;-63
2022/11/08 10:37:44;;;;;;;;;;;20.00;46.90;;;;;;4996064;28;19930;-64
2022/11/08 10:40:13;;;;;;;;;;;20.00;46.90;;;;;;4984957;28;19988;-63
2022/11/08 10:42:41;;;;;;;;;;;20.00;46.90;;;;;;4962596;28;20021;-62
2022/11/08 10:45:09;;;;;;;;;;;20.00;46.90;;;;;;4966450;28;19961;-63
2022/11/08 10:47:35;;;;;;;;;;;20.00;46.90;;;;;;4981988;28;19930;-63
2022/11/08 10:50:05;;;;;;;;;;;20.00;46.90;;;;;;4973768;28;20016;-63
2022/11/08 10:52:32;;;;;;;;;;;20.00;46.90;;;;;;4956007;28;19926;-64
2022/11/08 10:55:00;;;;;;;;;;;20.00;47.00;;;;;;4966727;28;19934;-63
2022/11/08 10:57:34;;;;;;;;;;;20.00;47.00;;;;;;4980414;28;20044;-63
2022/11/08 11:00:15;;;;;;;;;;;20.00;47.00;;;;;;4988193;28;19926;-62
2022/11/08 11:02:41;;;;;;;;;;;20.00;47.00;;;;;;4997116;28;19926;-63
2022/11/08 11:05:21;;;;;;;;;;;20.00;47.00;;;;;;5012835;28;19930;-63
2022/11/08 11:07:56;;;;;;;;;;;20.00;47.00;;;;;;4994503;28;19926;-64
2022/11/08 11:10:25;;;;;;;;;;;20.00;47.00;;;;;;4984025;28;20032;-63
2022/11/08 11:12:52;;;;;;;;;;;20.00;47.00;;;;;;4975485;28;20033;-63
2022/11/08 11:15:19;;;;;;;;;;;20.00;47.00;;;;;;4960769;28;19926;-63
2022/11/08 11:17:45;;;;;;;;;;;20.00;47.00;;;;;;4956593;28;19983;-63
2022/11/08 11:20:18;;;;;;;;;;;20.00;47.00;;;;;;4969344;28;19933;-63
2022/11/08 11:22:45;;;;;;;;;;;20.00;47.00;;;;;;4993123;28;19925;-64
2022/11/08 11:25:13;;;;;;;;;;;20.00;47.00;;;;;;4975719;28;19936;-63
2022/11/08 11:27:41;;;;;;;;;;;20.00;47.00;;;;;;4992234;28;19965;-64
2022/11/08 11:30:22;;;;;;;;;;;20.00;47.00;;;;;;4982780;28;19929;-64
2022/11/08 11:32:55;;;;;;;;;;;20.00;47.00;;;;;;5011328;28;19937;-64
2022/11/08 11:35:22;;;;;;;;;;;20.00;47.00;;;;;;4993841;28;20091;-65
2022/11/08 11:37:49;;;;;;;;;;;20.00;47.00;;;;;;4994224;28;20032;-62
2022/11/08 11:40:17;;;;;;;;;;;20.00;47.00;;;;;;4987060;28;20343;-63
2022/11/08 11:42:47;;;;;;;;;;;20.00;47.00;;;;;;4974467;28;19976;-64
2022/11/08 11:45:18;;;;;;;;;;;20.00;47.00;;;;;;4992438;28;19926;-64
2022/11/08 11:47:46;;;;;;;;;;;20.00;47.00;;;;;;4973972;28;19973;-63
2022/11/08 11:50:20;;;;;;;;;;;20.10;47.20;;;;;;4962305;28;20327;-64
2022/11/08 11:52:47;;;;;;;;;;;20.10;47.10;;;;;;4971747;28;20368;-64
2022/11/08 11:55:13;;;;;;;;;;;20.10;47.20;;;;;;4961918;28;19981;-64
2022/11/08 11:57:41;;;;;;;;;;;20.10;47.20;;;;;;4992133;28;19961;-63
2022/11/08 12:00:10;;;;;;;;;;;20.10;47.20;;;;;;5002590;28;20022;-63
2022/11/08 12:02:57;;;;;;;;;;;20.10;47.10;;;;;;4995220;28;20020;-63
2022/11/08 12:05:27;;;;;;;;;;;20.10;47.20;;;;;;4994743;28;19983;-64
2022/11/08 12:07:56;;;;;;;;;;;20.10;47.20;;;;;;4995137;28;19935;-63
2022/11/08 12:10:24;;;;;;;;;;;20.10;47.10;;;;;;5011811;28;20016;-63
2022/11/08 12:12:54;;;;;;;;;;;20.10;47.10;;;;;;4997317;28;19957;-64
2022/11/08 12:15:23;;;;;;;;;;;20.10;47.10;;;;;;4998455;28;19968;-63
2022/11/08 12:17:57;;;;;;;;;;;20.10;47.10;;;;;;4997876;28;20023;-64
2022/11/08 12:20:31;;;;;;;;;;;20.10;47.20;;;;;;4966038;28;19932;-64
2022/11/08 12:23:02;;;;;;;;;;;20.10;47.20;;;;;;4994111;28;19926;-63
2022/11/08 12:25:30;;;;;;;;;;;20.10;47.20;;;;;;5002739;28;20410;-64
2022/11/08 12:28:04;;;;;;;;;;;20.10;47.20;;;;;;4995160;28;20028;-63
2022/11/08 12:30:35;;;;;;;;;;;20.10;47.20;;;;;;4990341;28;20018;-64
2022/11/08 12:33:11;;;;;;;;;;;20.10;47.10;;;;;;4997177;28;20007;-64
2022/11/08 12:35:38;;;;;;;;;;;20.10;47.10;;;;;;4989494;28;19930;-64
2022/11/08 12:38:09;;;;;;;;;;;20.10;47.20;;;;;;4977568;28;20641;-64
2022/11/08 12:40:38;;;;;;;;;;;20.10;47.20;;;;;;4985183;28;19925;-63
2022/11/08 12:43:07;;;;;;;;;;;20.10;47.20;;;;;;4977160;28;20348;-63
2022/11/08 12:45:40;;;;;;;;;;;20.10;47.10;;;;;;4966618;28;19953;-64
2022/11/08 12:48:10;;;;;;;;;;;20.10;47.10;;;;;;4974307;28;20017;-63
2022/11/08 12:50:38;;;;;;;;;;;20.10;47.20;;;;;;4980960;28;19930;-63
2022/11/08 12:53:17;;;;;;;;;;;20.10;47.20;;;;;;4958308;28;20452;-64
2022/11/08 12:55:44;;;;;;;;;;;20.10;47.20;;;;;;4974362;28;19931;-64
2022/11/08 12:58:16;;;;;;;;;;;20.10;47.20;;;;;;4986206;28;19961;-64
2022/11/08 13:00:44;;;;;;;;;;;20.10;47.20;;;;;;5007950;28;19926;-64
2022/11/08 13:03:16;;;;;;;;;;;20.10;47.10;;;;;;4994138;28;19925;-64
2022/11/08 13:05:44;;;;;;;;;;;20.10;47.10;;;;;;4994732;28;19964;-64
2022/11/08 13:08:12;;;;;;;;;;;20.10;47.20;;;;;;4982068;28;19965;-64
2022/11/08 13:10:42;;;;;;;;;;;20.10;47.10;;;;;;4994675;28;20005;-63
2022/11/08 13:13:14;;;;;;;;;;;20.10;47.10;;;;;;4983582;28;19981;-63
2022/11/08 13:15:56;;;;;;;;;;;20.10;47.10;;;;;;4975523;28;20029;-63
2022/11/08 13:18:31;;;;;;;;;;;20.10;47.10;;;;;;4976903;28;19926;-63
2022/11/08 13:20:57;;;;;;;;;;;20.10;47.20;;;;;;4977474;28;19949;-64
2022/11/08 13:23:26;;;;;;;;;;;20.10;47.10;;;;;;4976285;28;20406;-64
2022/11/08 13:25:52;;;;;;;;;;;20.10;47.10;;;;;;4994309;28;20407;-63
2022/11/08 13:28:35;;;;;;;;;;;20.10;47.10;;;;;;4994725;28;20299;-63
2022/11/08 13:31:03;;;;;;;;;;;20.10;47.10;;;;;;4997569;28;20299;-63
2022/11/08 13:33:31;;;;;;;;;;;20.10;47.10;;;;;;4976954;28;20007;-63
2022/11/08 13:36:01;;;;;;;;;;;20.10;47.10;;;;;;4976696;28;19977;-64
2022/11/08 13:38:30;;;;;;;;;;;20.10;47.10;;;;;;4958649;28;19968;-63
2022/11/08 13:41:06;;;;;;;;;;;20.10;47.10;;;;;;4982344;28;19949;-64
2022/11/08 13:43:32;;;;;;;;;;;20.10;47.10;;;;;;4994640;28;19925;-64
2022/11/08 13:46:14;;;;;;;;;;;20.10;47.10;;;;;;4992264;28;19967;-63
2022/11/08 13:48:42;;;;;;;;;;;20.10;47.10;;;;;;4976243;28;19985;-63
2022/11/08 13:51:22;;;;;;;;;;;20.10;47.10;;;;;;5001184;28;19929;-63
2022/11/08 13:53:50;;;;;;;;;;;20.10;47.10;;;;;;4996041;28;19933;-63
2022/11/08 13:56:18;;;;;;;;;;;20.10;47.10;;;;;;4979185;28;20040;-64
2022/11/08 13:58:45;;;;;;;;;;;20.10;47.10;;;;;;4989205;28;20261;-64
2022/11/08 14:01:37;;;;;;;;;;;20.10;47.10;;;;;;4996016;28;20418;-64
2022/11/08 14:04:09;;;;;;;;;;;20.10;47.10;;;;;;4990136;28;19930;-63
2022/11/08 14:06:36;;;;;;;;;;;20.10;47.10;;;;;;4976577;28;20032;-64
2022/11/08 14:09:07;;;;;;;;;;;20.10;47.10;;;;;;4976780;28;19930;-62
2022/11/08 14:11:39;;;;;;;;;;;20.10;47.10;;;;;;4970041;28;19932;-62
2022/11/08 14:14:16;;;;;;;;;;;20.10;47.10;;;;;;4956964;28;20006;-62
2022/11/08 14:16:46;;;;;;;;;;;20.10;47.10;;;;;;4968259;28;19926;-65
2022/11/08 14:19:17;;;;;;;;;;;20.10;47.10;;;;;;4992406;28;19968;-62
2022/11/08 14:21:48;;;;;;;;;;;20.10;47.10;;;;;;4987277;28;19925;-63
2022/11/08 14:24:15;;;;;;;;;;;20.10;47.20;;;;;;4996111;28;19969;-63
2022/11/08 14:26:44;;;;;;;;;;;20.10;47.20;;;;;;5001807;28;20016;-64
2022/11/08 14:29:14;;;;;;;;;;;20.10;47.10;;;;;;4976478;28;19929;-63
2022/11/08 14:31:41;;;;;;;;;;;20.10;47.10;;;;;;5002583;28;20019;-63
2022/11/08 14:34:08;;;;;;;;;;;20.10;47.10;;;;;;4995630;28;19926;-63
2022/11/08 14:36:36;;;;;;;;;;;20.10;47.10;;;;;;4984839;28;19930;-64
2022/11/08 14:39:03;;;;;;;;;;;20.10;47.10;;;;;;5013220;28;19952;-64
2022/11/08 14:41:31;;;;;;;;;;;20.10;47.10;;;;;;4995424;28;20350;-64
2022/11/08 14:43:59;;;;;;;;;;;20.10;47.10;;;;;;4993207;28;19980;-63
2022/11/08 14:46:28;;;;;;;;;;;20.10;47.20;;;;;;4975764;28;19925;-63